Time;durP1;ratioP1;P1;durP2;ratioP2;P2;SDS_P1;SDS_P2;PMS_P1;PMS_P2;Temp;Humidity;BMP_temperature;BMP_pressure;BME280_temperature;BME280_humidity;BME280_pressure;Samples;Min_cycle;Max_cycle;Signal;HPM_P1;HPM_P2
2023/12/04 00:00:21;;;;;;;15.33;8.60;;;;;;;-5.62;100.00;98357.31;5037778;28;20234;-78
2023/12/04 00:02:49;;;;;;;17.37;10.20;;;;;;;-5.66;100.00;98355.59;5036939;28;20224;-79
2023/12/04 00:05:15;;;;;;;17.67;9.67;;;;;;;-5.65;100.00;98352.16;5035088;28;20749;-78
2023/12/04 00:07:41;;;;;;;18.70;10.30;;;;;;;-5.66;100.00;98338.47;5034701;28;20206;-78
2023/12/04 00:10:09;;;;;;;18.83;10.57;;;;;;;-5.68;100.00;98332.44;5033903;28;20694;-79
2023/12/04 00:12:35;;;;;;;21.17;11.10;;;;;;;-5.67;100.00;98333.31;5034197;28;20233;-77
2023/12/04 00:15:02;;;;;;;16.83;9.97;;;;;;;-5.74;100.00;98329.03;5033684;28;20217;-78
2023/12/04 00:17:30;;;;;;;19.77;10.97;;;;;;;-5.78;100.00;98330.75;5034193;28;20292;-78
2023/12/04 00:19:56;;;;;;;19.97;11.37;;;;;;;-5.72;100.00;98329.88;5033696;28;20205;-78
2023/12/04 00:22:23;;;;;;;22.37;10.40;;;;;;;-5.71;100.00;98316.16;5033888;28;20233;-79
2023/12/04 00:24:50;;;;;;;18.63;9.90;;;;;;;-5.75;100.00;98319.59;5034400;28;20213;-77
2023/12/04 00:27:16;;;;;;;22.53;11.17;;;;;;;-5.70;100.00;98304.97;5043381;28;20205;-78
2023/12/04 00:29:43;;;;;;;18.93;9.87;;;;;;;-5.74;100.00;98321.31;5037178;28;20605;-77
2023/12/04 00:32:09;;;;;;;17.37;10.37;;;;;;;-5.76;100.00;98308.44;5036269;28;20240;-77
2023/12/04 00:34:37;;;;;;;20.80;11.00;;;;;;;-5.75;100.00;98304.16;5033774;28;20323;-77
2023/12/04 00:37:04;;;;;;;23.57;12.87;;;;;;;-5.78;100.00;98314.44;5041435;28;20231;-77
2023/12/04 00:39:30;;;;;;;22.17;11.00;;;;;;;-5.79;100.00;98312.75;5047117;28;20205;-78
2023/12/04 00:41:58;;;;;;;17.63;9.77;;;;;;;-5.80;100.00;98293.06;5041575;28;20225;-77
2023/12/04 00:44:24;;;;;;;21.63;11.47;;;;;;;-5.79;100.00;98294.72;5037580;28;20228;-77
2023/12/04 00:46:51;;;;;;;19.33;10.47;;;;;;;-5.83;100.00;98290.47;5038250;28;20208;-78
2023/12/04 00:49:17;;;;;;;19.90;10.33;;;;;;;-5.80;100.00;98290.50;5043308;28;20236;-78
2023/12/04 00:51:45;;;;;;;22.10;10.43;;;;;;;-5.81;100.00;98283.63;5040010;28;20235;-78
2023/12/04 00:54:12;;;;;;;17.83;10.27;;;;;;;-5.85;100.00;98284.50;5045937;28;20232;-78
2023/12/04 00:56:39;;;;;;;23.10;10.97;;;;;;;-5.83;100.00;98280.19;5048901;28;20386;-78
2023/12/04 00:59:06;;;;;;;20.17;10.97;;;;;;;-5.78;100.00;98276.72;5039792;28;20208;-78
2023/12/04 01:01:33;;;;;;;20.60;11.33;;;;;;;-5.71;100.00;98274.97;5039438;28;20606;-78
2023/12/04 01:04:00;;;;;;;22.63;11.30;;;;;;;-5.65;100.00;98272.38;5038690;28;20212;-77
2023/12/04 01:06:26;;;;;;;22.60;11.03;;;;;;;-5.61;100.00;98266.34;5036490;28;20224;-78
2023/12/04 01:08:55;;;;;;;28.43;12.50;;;;;;;-5.58;100.00;98262.06;5034370;28;20236;-78
2023/12/04 01:11:21;;;;;;;22.43;11.90;;;;;;;-5.58;100.00;98263.75;5034286;28;20241;-78
2023/12/04 01:13:49;;;;;;;19.10;10.73;;;;;;;-5.64;100.00;98267.22;5033860;28;20215;-78
2023/12/04 01:16:16;;;;;;;21.60;11.03;;;;;;;-5.56;100.00;98262.06;5033719;28;20309;-78
2023/12/04 01:18:43;;;;;;;21.67;11.30;;;;;;;-5.53;100.00;98267.16;5034507;28;20213;-77
2023/12/04 01:21:10;;;;;;;21.80;11.23;;;;;;;-5.52;100.00;98267.16;5034292;28;20259;-77
2023/12/04 01:23:37;;;;;;;23.70;11.37;;;;;;;-5.49;100.00;98261.16;5034604;28;20223;-78
2023/12/04 01:26:05;;;;;;;21.87;11.63;;;;;;;-5.50;100.00;98259.44;5033724;28;20702;-77
2023/12/04 01:28:32;;;;;;;20.93;10.90;;;;;;;-5.49;100.00;98261.16;5034215;28;20314;-77
2023/12/04 01:30:58;;;;;;;20.87;10.93;;;;;;;-5.46;100.00;98258.56;5034413;28;20204;-78
2023/12/04 01:33:25;;;;;;;18.47;11.43;;;;;;;-5.42;100.00;98252.53;5034949;28;20209;-77
2023/12/04 01:35:52;;;;;;;24.77;11.23;;;;;;;-5.45;100.00;98237.13;5034117;28;20217;-78
2023/12/04 01:38:18;;;;;;;28.73;13.17;;;;;;;-5.39;100.00;98242.22;5034364;28;20214;-77
2023/12/04 01:40:45;;;;;;;18.33;10.13;;;;;;;-5.35;100.00;98238.75;5034120;28;20205;-78
2023/12/04 01:43:13;;;;;;;19.00;10.10;;;;;;;-5.36;100.00;98242.22;5033732;28;20233;-77
2023/12/04 01:45:38;;;;;;;24.27;11.63;;;;;;;-5.30;100.00;98244.75;5051713;28;20201;-78
2023/12/04 01:48:07;;;;;;;18.43;9.93;;;;;;;-5.25;100.00;98235.28;5051095;28;20243;-78
2023/12/04 01:50:34;;;;;;;21.57;11.17;;;;;;;-5.18;100.00;98236.94;5035673;28;20233;-77
2023/12/04 01:53:01;;;;;;;23.90;12.50;;;;;;;-5.16;100.00;98235.22;5034288;28;20259;-78
2023/12/04 01:55:29;;;;;;;22.23;11.63;;;;;;;-5.13;100.00;98235.22;5041122;28;20209;-78
2023/12/04 01:57:56;;;;;;;22.37;11.63;;;;;;;-5.14;100.00;98234.34;5036349;28;20208;-78
2023/12/04 02:00:24;;;;;;;28.90;12.87;;;;;;;-5.13;100.00;98230.06;5033090;28;20209;-78
2023/12/04 02:02:51;;;;;;;24.10;12.03;;;;;;;-5.11;100.00;98226.59;5033466;28;20240;-78
2023/12/04 02:05:18;;;;;;;19.97;10.50;;;;;;;-5.16;100.00;98224.91;5032817;28;20212;-78
2023/12/04 02:07:44;;;;;;;23.93;12.13;;;;;;;-5.14;100.00;98223.19;5032426;28;20691;-79
2023/12/04 02:10:11;;;;;;;21.80;11.80;;;;;;;-5.10;100.00;98223.16;5032738;28;20236;-78
2023/12/04 02:12:38;;;;;;;20.13;9.80;;;;;;;-5.15;100.00;98226.59;5032639;28;20262;-78
2023/12/04 02:15:05;;;;;;;22.33;12.07;;;;;;;-5.17;100.00;98228.34;5033363;28;20212;-78
2023/12/04 02:17:34;;;;;;;20.30;11.27;;;;;;;-5.18;100.00;98231.78;5038009;28;20578;-77
2023/12/04 02:20:00;;;;;;;20.90;10.80;;;;;;;-5.15;100.00;98222.31;5055680;28;20679;-78
2023/12/04 02:22:27;;;;;;;20.67;11.47;;;;;;;-5.13;100.00;98214.59;5072768;28;20227;-78
2023/12/04 02:24:58;;;;;;;20.87;11.27;;;;;;;-5.14;100.00;98207.75;5058295;28;20216;-78
2023/12/04 02:27:30;;;;;;;22.20;11.00;;;;;;;-5.17;100.00;98200.00;5053371;28;20216;-78
2023/12/04 02:30:00;;;;;;;22.13;10.83;;;;;;;-5.26;100.00;98187.22;5063794;28;20216;-78
2023/12/04 02:32:31;;;;;;;18.87;10.17;;;;;;;-5.34;100.00;98179.53;5073010;28;20234;-78
2023/12/04 02:35:00;;;;;;;19.97;10.90;;;;;;;-5.36;100.00;98186.41;5070291;28;20196;-77
2023/12/04 02:37:27;;;;;;;19.47;10.90;;;;;;;-5.35;100.00;98185.53;5054314;28;20211;-78
2023/12/04 02:39:55;;;;;;;22.93;10.50;;;;;;;-5.34;100.00;98188.97;5053912;28;20671;-77
2023/12/04 02:42:24;;;;;;;19.20;10.20;;;;;;;-5.36;100.00;98195.84;5054038;28;20702;-78
2023/12/04 02:44:51;;;;;;;21.40;10.43;;;;;;;-5.34;100.00;98194.97;5052241;28;20215;-77
2023/12/04 02:47:18;;;;;;;19.00;9.97;;;;;;;-5.28;100.00;98204.38;5054509;28;20212;-78
2023/12/04 02:49:44;;;;;;;16.40;8.90;;;;;;;-5.30;100.00;98200.97;5052800;28;20226;-78
2023/12/04 02:52:11;;;;;;;20.43;9.80;;;;;;;-5.31;100.00;98188.97;5051760;28;20728;-78
2023/12/04 02:54:38;;;;;;;17.93;10.03;;;;;;;-5.33;100.00;98190.66;5052537;28;20208;-77
2023/12/04 02:57:09;;;;;;;20.10;10.00;;;;;;;-5.32;100.00;98192.41;5052768;28;20204;-77
2023/12/04 02:59:35;;;;;;;20.73;10.37;;;;;;;-5.23;100.00;98179.44;5052900;28;20204;-77
2023/12/04 03:02:02;;;;;;;16.03;9.93;;;;;;;-5.26;100.00;98174.34;5052680;28;20235;-78
2023/12/04 03:04:29;;;;;;;22.53;11.20;;;;;;;-5.26;100.00;98156.31;5052059;28;20208;-78
2023/12/04 03:06:56;;;;;;;18.27;10.27;;;;;;;-5.29;100.00;98151.16;5052804;28;20208;-78
2023/12/04 03:09:22;;;;;;;18.77;10.57;;;;;;;-5.32;100.00;98144.31;5052987;28;20223;-78
2023/12/04 03:11:49;;;;;;;24.47;10.57;;;;;;;-5.25;100.00;98150.28;5052740;28;20231;-77
2023/12/04 03:14:17;;;;;;;21.10;11.37;;;;;;;-5.27;100.00;98136.53;5053954;28;20219;-77
2023/12/04 03:16:43;;;;;;;19.00;10.87;;;;;;;-5.26;100.00;98140.84;5060718;28;20577;-78
2023/12/04 03:19:10;;;;;;;19.27;11.13;;;;;;;-5.27;100.00;98133.97;5057401;28;20208;-77
2023/12/04 03:21:36;;;;;;;18.37;9.77;;;;;;;-5.24;100.00;98127.09;5056018;28;20228;-77
2023/12/04 03:24:03;;;;;;;22.17;10.77;;;;;;;-5.27;100.00;98124.53;5055432;28;20208;-78
2023/12/04 03:26:29;;;;;;;23.00;11.20;;;;;;;-5.23;100.00;98125.34;5056080;28;20208;-78
2023/12/04 03:28:56;;;;;;;20.60;10.07;;;;;;;-5.25;100.00;98122.78;5055038;28;20288;-79
2023/12/04 03:31:24;;;;;;;16.97;10.80;;;;;;;-5.22;100.00;98116.75;5056174;28;20236;-79
2023/12/04 03:33:50;;;;;;;19.40;10.13;;;;;;;-5.29;100.00;98115.97;5061644;28;20212;-79
2023/12/04 03:36:17;;;;;;;20.20;10.47;;;;;;;-5.23;100.00;98109.91;5062294;28;20208;-79
2023/12/04 03:38:43;;;;;;;18.63;10.50;;;;;;;-5.28;100.00;98107.38;5060382;28;20218;-79
2023/12/04 03:41:14;;;;;;;21.03;9.67;;;;;;;-5.30;100.00;98103.09;5058982;28;20314;-78
2023/12/04 03:43:41;;;;;;;18.83;10.30;;;;;;;-5.31;100.00;98099.66;5055282;28;20223;-78
2023/12/04 03:46:07;;;;;;;19.23;9.67;;;;;;;-5.32;100.00;98089.38;5055070;28;20208;-79
2023/12/04 03:48:35;;;;;;;20.50;10.63;;;;;;;-5.32;100.00;98081.66;5056428;28;20215;-79
2023/12/04 03:51:02;;;;;;;16.83;10.03;;;;;;;-5.25;100.00;98075.59;5077734;28;20227;-77
2023/12/04 03:53:28;;;;;;;19.27;11.30;;;;;;;-5.22;100.00;98066.13;5078865;28;20214;-78
2023/12/04 03:55:55;;;;;;;18.73;9.80;;;;;;;-5.21;100.00;98061.78;5071472;28;20212;-79
2023/12/04 03:58:21;;;;;;;17.90;9.63;;;;;;;-5.15;100.00;98056.59;5066833;28;20224;-78
2023/12/04 04:00:48;;;;;;;21.07;9.43;;;;;;;-5.12;100.00;98059.16;5056282;28;20204;-79
2023/12/04 04:03:14;;;;;;;16.97;8.83;;;;;;;-5.08;100.00;98060.84;5055812;28;20208;-77
2023/12/04 04:05:42;;;;;;;19.80;9.87;;;;;;;-5.03;100.00;98059.06;5055259;28;20209;-78
2023/12/04 04:08:09;;;;;;;16.20;8.80;;;;;;;-4.97;100.00;98064.16;5054776;28;20220;-78
2023/12/04 04:10:35;;;;;;;18.43;9.33;;;;;;;-5.01;100.00;98065.91;5061093;28;20232;-77
2023/12/04 04:13:02;;;;;;;16.67;9.07;;;;;;;-4.98;100.00;98067.59;5066862;28;20242;-77
2023/12/04 04:15:28;;;;;;;16.60;9.27;;;;;;;-5.00;100.00;98062.44;5058843;28;20219;-79
2023/12/04 04:17:55;;;;;;;19.87;9.70;;;;;;;-5.00;100.00;98067.59;5065467;28;20233;-79
2023/12/04 04:20:21;;;;;;;17.13;9.57;;;;;;;-5.01;100.00;98065.06;5055418;28;20223;-78
2023/12/04 04:22:50;;;;;;;17.07;9.20;;;;;;;-4.98;100.00;98057.28;5056161;28;20474;-79
2023/12/04 04:25:16;;;;;;;16.73;8.63;;;;;;;-4.98;100.00;98055.59;5064219;28;20276;-78
2023/12/04 04:27:43;;;;;;;18.70;10.43;;;;;;;-4.99;100.00;98058.16;5065812;28;20204;-78
2023/12/04 04:30:10;;;;;;;17.50;10.07;;;;;;;-4.91;100.00;98056.34;5058840;28;20228;-77
2023/12/04 04:32:37;;;;;;;16.90;9.63;;;;;;;-4.91;100.00;98062.38;5072259;28;20241;-77
2023/12/04 04:35:04;;;;;;;17.50;9.43;;;;;;;-4.89;100.00;98062.38;5053735;28;20710;-77
2023/12/04 04:37:30;;;;;;;18.23;9.70;;;;;;;-4.77;100.00;98067.41;5054600;28;20216;-77
2023/12/04 04:39:58;;;;;;;19.53;9.97;;;;;;;-4.75;100.00;98078.53;5054456;28;20211;-78
2023/12/04 04:42:24;;;;;;;19.17;9.87;;;;;;;-4.79;100.00;98064.84;5067310;28;20232;-78
2023/12/04 04:44:51;;;;;;;17.13;9.27;;;;;;;-4.81;100.00;98060.56;5062154;28;20693;-78
2023/12/04 04:47:16;;;;;;;18.50;9.90;;;;;;;-4.79;100.00;98061.38;5057078;28;20574;-78
2023/12/04 04:49:43;;;;;;;15.37;9.17;;;;;;;-4.76;100.00;98045.91;5058276;28;20208;-78
2023/12/04 04:52:09;;;;;;;15.53;9.13;;;;;;;-4.77;100.00;98045.03;5059264;28;20243;-78
2023/12/04 04:54:36;;;;;;;16.17;9.73;;;;;;;-4.76;100.00;98051.91;5055146;28;20678;-78
2023/12/04 04:57:04;;;;;;;16.97;9.57;;;;;;;-4.78;100.00;98050.19;5054909;28;20220;-78
2023/12/04 04:59:31;;;;;;;17.83;8.27;;;;;;;-4.79;100.00;98040.75;5054231;28;20303;-78
2023/12/04 05:01:58;;;;;;;21.80;9.90;;;;;;;-4.76;100.00;98051.91;5053825;28;20257;-78
2023/12/04 05:04:24;;;;;;;19.93;9.43;;;;;;;-4.76;100.00;98051.06;5053240;28;20208;-78
2023/12/04 05:06:51;;;;;;;21.10;9.97;;;;;;;-4.77;100.00;98045.03;5059042;28;20223;-78
2023/12/04 05:09:18;;;;;;;18.10;9.23;;;;;;;-4.83;100.00;98044.25;5055309;28;20212;-78
2023/12/04 05:11:44;;;;;;;16.93;9.10;;;;;;;-4.84;100.00;98042.56;5061395;28;20271;-78
2023/12/04 05:14:12;;;;;;;20.13;9.23;;;;;;;-4.89;100.00;98040.00;5070806;28;20204;-78
2023/12/04 05:16:39;;;;;;;17.13;9.40;;;;;;;-4.88;100.00;98030.56;5077602;28;20677;-78
2023/12/04 05:19:05;;;;;;;19.13;10.40;;;;;;;-4.91;100.00;98018.56;5071458;28;20284;-78
2023/12/04 05:21:32;;;;;;;20.23;10.60;;;;;;;-4.90;100.00;98022.84;5058642;28;20871;-78
2023/12/04 05:23:58;;;;;;;18.70;9.90;;;;;;;-4.87;100.00;98016.81;5067917;28;20212;-78
2023/12/04 05:26:25;;;;;;;19.60;9.57;;;;;;;-4.86;100.00;98016.81;5067669;28;20212;-78
2023/12/04 05:28:51;;;;;;;17.47;9.33;;;;;;;-4.83;100.00;98013.34;5055457;28;20204;-77
2023/12/04 05:31:19;;;;;;;17.77;9.47;;;;;;;-4.80;100.00;98011.56;5053047;28;20245;-77
2023/12/04 05:33:45;;;;;;;17.83;9.67;;;;;;;-4.79;100.00;97994.38;5053413;28;20305;-78
2023/12/04 05:36:14;;;;;;;14.90;8.30;;;;;;;-4.75;100.00;98001.22;5052591;28;20208;-78
2023/12/04 05:38:41;;;;;;;15.87;8.80;;;;;;;-4.76;100.00;97996.94;5053356;28;20658;-77
2023/12/04 05:41:06;;;;;;;18.43;8.80;;;;;;;-4.78;100.00;97996.06;5053356;28;20220;-77
2023/12/04 05:43:33;;;;;;;18.00;8.93;;;;;;;-4.77;100.00;97988.31;5052548;28;20216;-78
2023/12/04 05:45:59;;;;;;;14.03;7.87;;;;;;;-4.77;100.00;97987.50;5052494;28;20219;-77
2023/12/04 05:48:27;;;;;;;13.87;7.83;;;;;;;-4.80;100.00;97993.53;5052767;28;20223;-77
2023/12/04 05:50:54;;;;;;;13.90;7.50;;;;;;;-4.83;100.00;97992.72;5052476;28;20578;-78
2023/12/04 05:53:20;;;;;;;16.60;8.70;;;;;;;-4.75;100.00;97985.75;5052373;28;20205;-77
2023/12/04 05:55:47;;;;;;;16.50;8.53;;;;;;;-4.71;100.00;97992.56;5052608;28;20214;-78
2023/12/04 05:58:13;;;;;;;14.67;7.87;;;;;;;-4.75;100.00;97990.91;5052882;28;20209;-77
2023/12/04 06:00:40;;;;;;;13.67;8.03;;;;;;;-4.75;100.00;97988.31;5052158;28;20208;-78
2023/12/04 06:03:07;;;;;;;13.73;7.13;;;;;;;-4.72;100.00;97975.38;5052704;28;20294;-77
2023/12/04 06:05:34;;;;;;;11.63;7.37;;;;;;;-4.71;100.00;97982.28;5052298;28;20218;-77
2023/12/04 06:08:01;;;;;;;15.90;7.70;;;;;;;-4.72;100.00;97980.53;5052373;28;20204;-77
2023/12/04 06:10:27;;;;;;;12.03;6.90;;;;;;;-4.73;100.00;97974.53;5052921;28;20227;-78
2023/12/04 06:12:54;;;;;;;13.17;7.07;;;;;;;-4.73;100.00;97971.09;5052894;28;20623;-78
2023/12/04 06:15:20;;;;;;;13.20;7.60;;;;;;;-4.71;100.00;97979.69;5052200;28;20216;-77
2023/12/04 06:17:47;;;;;;;15.63;7.23;;;;;;;-4.70;100.00;97987.38;5052686;28;20236;-77
2023/12/04 06:20:13;;;;;;;12.97;7.50;;;;;;;-4.68;100.00;97988.22;5052416;28;20226;-77
2023/12/04 06:22:42;;;;;;;11.57;6.90;;;;;;;-4.66;100.00;97983.03;5051639;28;20232;-77
2023/12/04 06:25:10;;;;;;;13.07;7.43;;;;;;;-4.63;100.00;97990.75;5051910;28;20216;-78
2023/12/04 06:27:38;;;;;;;12.90;7.07;;;;;;;-4.62;100.00;97987.28;5052449;28;20219;-77
2023/12/04 06:30:06;;;;;;;9.77;6.87;;;;;;;-4.63;100.00;97990.75;5052349;28;20317;-78
2023/12/04 06:32:33;;;;;;;12.10;7.20;;;;;;;-4.64;100.00;97978.75;5052698;28;20236;-77
2023/12/04 06:35:00;;;;;;;14.20;7.87;;;;;;;-4.64;100.00;97981.31;5051774;28;20211;-78
2023/12/04 06:37:27;;;;;;;15.57;8.27;;;;;;;-4.63;100.00;97990.75;5052696;28;20209;-78
2023/12/04 06:40:00;;;;;;;10.83;7.30;;;;;;;-4.58;100.00;97978.66;5052642;28;20208;-78
2023/12/04 06:42:27;;;;;;;13.50;6.90;;;;;;;-4.55;100.00;97978.59;5052080;28;20734;-78
2023/12/04 06:44:54;;;;;;;11.97;7.70;;;;;;;-4.56;100.00;97966.59;5052156;28;20204;-78
2023/12/04 06:47:23;;;;;;;11.83;7.33;;;;;;;-4.57;100.00;97965.75;5052655;28;20211;-78
2023/12/04 06:49:50;;;;;;;13.50;7.53;;;;;;;-4.55;100.00;97960.56;5053183;28;20204;-78
2023/12/04 06:52:16;;;;;;;14.20;8.40;;;;;;;-4.50;100.00;97966.50;5056737;28;20228;-78
2023/12/04 06:54:43;;;;;;;11.53;6.93;;;;;;;-4.48;100.00;97963.03;5054937;28;20216;-77
2023/12/04 06:57:11;;;;;;;12.03;7.57;;;;;;;-4.45;100.00;97964.72;5055476;28;20220;-77
2023/12/04 06:59:37;;;;;;;17.47;9.00;;;;;;;-4.47;100.00;97958.75;5055348;28;20208;-77
2023/12/04 07:02:05;;;;;;;14.23;7.87;;;;;;;-4.45;100.00;97960.41;5055551;28;20224;-77
2023/12/04 07:04:31;;;;;;;10.77;6.63;;;;;;;-4.40;100.00;97968.09;5055231;28;20214;-77
2023/12/04 07:07:04;;;;;;;11.93;7.57;;;;;;;-4.33;100.00;97960.25;5055517;28;20556;-77
2023/12/04 07:09:31;;;;;;;12.37;7.53;;;;;;;-4.30;100.00;97961.94;5055583;28;20212;-77
2023/12/04 07:11:57;;;;;;;14.53;7.90;;;;;;;-4.25;100.00;97950.69;5055737;28;20228;-77
2023/12/04 07:14:25;;;;;;;13.40;7.90;;;;;;;-4.25;100.00;97944.66;5054620;28;20212;-77
2023/12/04 07:16:51;;;;;;;12.70;6.93;;;;;;;-4.25;100.00;97957.56;5055465;28;20205;-77
2023/12/04 07:19:18;;;;;;;12.40;7.13;;;;;;;-4.23;100.00;97942.94;5055405;28;20207;-79
2023/12/04 07:21:44;;;;;;;13.10;7.07;;;;;;;-4.23;100.00;97928.28;5057963;28;20224;-80
2023/12/04 07:24:11;;;;;;;13.37;8.13;;;;;;;-4.18;100.00;97938.53;5056201;28;20209;-78
2023/12/04 07:26:38;;;;;;;12.63;7.37;;;;;;;-4.19;100.00;97937.72;5056937;28;20213;-79
2023/12/04 07:29:04;;;;;;;12.77;7.13;;;;;;;-4.21;100.00;97943.75;5056487;28;20630;-78
2023/12/04 07:31:32;;;;;;;15.53;8.13;;;;;;;-4.17;100.00;97950.59;5056147;28;20232;-78
2023/12/04 07:34:00;;;;;;;11.17;7.00;;;;;;;-4.19;100.00;97931.69;5056360;28;20237;-78
2023/12/04 07:36:27;;;;;;;12.63;6.80;;;;;;;-4.19;100.00;97922.22;5055632;28;20248;-77
2023/12/04 07:38:54;;;;;;;12.80;7.13;;;;;;;-4.12;100.00;97920.38;5055356;28;20229;-78
2023/12/04 07:41:20;;;;;;;14.30;7.63;;;;;;;-4.04;100.00;97924.56;5055327;28;20243;-78
2023/12/04 07:43:47;;;;;;;14.03;7.73;;;;;;;-4.00;100.00;97933.09;5055197;28;20218;-78
2023/12/04 07:46:14;;;;;;;12.03;6.93;;;;;;;-3.96;100.00;97924.44;5054701;28;20209;-77
2023/12/04 07:48:42;;;;;;;13.17;7.77;;;;;;;-3.88;100.00;97917.41;5054867;28;20201;-78
2023/12/04 07:51:10;;;;;;;11.73;6.87;;;;;;;-3.76;100.00;97922.38;5054783;28;20227;-77
2023/12/04 07:53:36;;;;;;;12.40;7.33;;;;;;;-3.75;100.00;97912.03;5054448;28;20209;-78
2023/12/04 07:56:04;;;;;;;9.87;6.63;;;;;;;-3.71;100.00;97905.09;5054157;28;20206;-78
2023/12/04 07:58:31;;;;;;;10.27;6.43;;;;;;;-3.68;100.00;97918.81;5054955;28;20216;-78
2023/12/04 08:00:58;;;;;;;13.97;7.27;;;;;;;-3.62;100.00;97910.13;5054236;28;20209;-78
2023/12/04 08:03:24;;;;;;;12.90;7.85;;;;;;;-3.56;100.00;97915.19;5054074;28;20435;-78
2023/12/04 08:05:52;;;;;;;11.23;6.37;;;;;;;-3.53;100.00;97909.94;5053978;28;20742;-78
2023/12/04 08:08:19;;;;;;;11.73;6.93;;;;;;;-3.49;100.00;97901.28;5054604;28;20435;-78
2023/12/04 08:10:45;;;;;;;13.50;7.87;;;;;;;-3.42;100.00;97908.03;5051992;28;20219;-78
2023/12/04 08:13:12;;;;;;;13.33;7.97;;;;;;;-3.37;100.00;97911.38;5053528;28;20227;-79
2023/12/04 08:15:38;;;;;;;14.17;7.93;;;;;;;-3.30;100.00;97915.56;5052219;28;20665;-79
2023/12/04 08:18:05;;;;;;;14.57;7.77;;;;;;;-3.23;100.00;97904.22;5054121;28;20209;-78
2023/12/04 08:20:32;;;;;;;14.10;8.17;;;;;;;-3.18;100.00;97907.56;5053656;28;20287;-78
2023/12/04 08:23:00;;;;;;;17.90;11.88;;;;;;;-3.14;100.00;97898.84;5045262;28;20752;-77
2023/12/04 08:25:27;;;;;;;20.17;9.57;;;;;;;-3.04;100.00;97884.88;5052670;28;20213;-80
2023/12/04 08:27:54;;;;;;;15.57;9.53;;;;;;;-3.01;100.00;97890.84;5053638;28;20209;-79
2023/12/04 08:30:20;;;;;;;14.83;8.87;;;;;;;-3.00;100.00;97876.19;5054036;28;20319;-78
2023/12/04 08:32:47;;;;;;;13.27;8.90;;;;;;;-2.97;100.00;97870.94;5053265;28;20712;-78
2023/12/04 08:35:13;;;;;;;16.77;9.10;;;;;;;-2.75;100.00;97861.88;5054659;28;20215;-79
2023/12/04 08:37:40;;;;;;;12.87;7.70;;;;;;;-2.73;100.00;97854.94;5053974;28;20205;-79
2023/12/04 08:40:10;;;;;;;15.70;8.87;;;;;;;-2.78;100.00;97856.75;5052519;28;20209;-79
2023/12/04 08:42:36;;;;;;;12.73;8.10;;;;;;;-2.85;100.00;97855.19;5052656;28;20263;-79
2023/12/04 08:45:05;;;;;;;16.57;8.47;;;;;;;-2.81;100.00;97867.19;5052173;28;20213;-79
2023/12/04 08:47:33;;;;;;;16.43;8.83;;;;;;;-2.76;100.00;97865.34;5054715;28;20267;-79
2023/12/04 08:50:01;;;;;;;13.60;8.53;;;;;;;-2.73;100.00;97865.28;5053666;28;20207;-79
2023/12/04 08:52:27;;;;;;;16.77;8.77;;;;;;;-2.69;100.00;97867.75;5053003;28;20239;-79
2023/12/04 08:54:54;;;;;;;15.67;8.87;;;;;;;-2.64;100.00;97878.03;5048895;28;20212;-79
2023/12/04 08:57:21;;;;;;;14.17;8.30;;;;;;;-2.60;100.00;97871.88;5037136;28;20593;-81
2023/12/04 08:59:48;;;;;;;14.20;8.50;;;;;;;-2.44;100.00;97857.72;5050930;28;20207;-80
2023/12/04 09:02:14;;;;;;;14.03;8.00;;;;;;;-2.44;100.00;97857.72;5031107;28;20229;-80
2023/12/04 09:04:41;;;;;;;16.00;8.30;;;;;;;-2.34;100.00;97851.47;5031696;28;20209;-78
2023/12/04 09:07:07;;;;;;;13.33;7.97;;;;;;;-2.34;100.00;97843.72;5032417;28;20301;-79
2023/12/04 09:09:34;;;;;;;11.43;7.97;;;;;;;-2.28;100.00;97859.09;5019026;28;20226;-79
2023/12/04 09:12:01;;;;;;;12.13;7.80;;;;;;;-2.28;100.00;97859.09;5031910;28;20264;-78
2023/12/04 09:14:28;;;;;;;12.07;7.20;;;;;;;-2.20;100.00;97857.16;5033529;28;20209;-79
2023/12/04 09:16:55;;;;;;;15.73;8.20;;;;;;;-2.20;100.00;97862.34;5033673;28;20595;-81
2023/12/04 09:19:22;;;;;;;13.57;8.87;;;;;;;-2.15;100.00;97855.31;5034274;28;20630;-81
2023/12/04 09:21:48;;;;;;;12.17;7.93;;;;;;;-2.13;100.00;97858.72;5034646;28;20329;-79
2023/12/04 09:24:15;;;;;;;11.10;7.50;;;;;;;-2.15;100.00;97850.16;5033810;28;20667;-79
2023/12/04 09:26:43;;;;;;;14.20;8.03;;;;;;;-2.06;100.00;97834.38;5034302;28;20207;-79
2023/12/04 09:29:12;;;;;;;15.23;8.73;;;;;;;-2.14;100.00;97836.31;5034895;28;20622;-81
2023/12/04 09:31:40;;;;;;;11.67;7.10;;;;;;;-2.16;100.00;97844.09;5034689;28;20253;-79
2023/12/04 09:34:08;;;;;;;14.80;8.20;;;;;;;-2.14;100.00;97846.66;5034293;28;20210;-80
2023/12/04 09:36:36;;;;;;;14.27;8.03;;;;;;;-2.16;100.00;97848.41;5034832;28;20281;-81
2023/12/04 09:39:03;;;;;;;13.97;8.03;;;;;;;-2.07;100.00;97840.44;5033986;28;20211;-80
2023/12/04 09:41:31;;;;;;;13.20;7.87;;;;;;;-1.96;100.00;97835.84;5033325;28;20775;-81
2023/12/04 09:43:58;;;;;;;12.27;7.93;;;;;;;-1.97;100.00;97847.13;5032607;28;20219;-81
2023/12/04 09:46:25;;;;;;;15.10;7.93;;;;;;;-1.95;100.00;97840.16;5033560;28;20215;-82
2023/12/04 09:48:54;;;;;;;14.80;8.13;;;;;;;-1.83;100.00;97843.25;5033585;28;20215;-80
2023/12/04 09:51:23;;;;;;;14.57;8.63;;;;;;;-1.88;100.00;97834.78;5033708;28;20289;-79
2023/12/04 09:53:50;;;;;;;16.57;9.37;;;;;;;-1.82;100.00;97834.63;5033894;28;20223;-79
2023/12/04 09:56:17;;;;;;;18.70;9.07;;;;;;;-1.86;100.00;97838.19;5038057;28;20207;-79
2023/12/04 09:58:45;;;;;;;13.57;8.33;;;;;;;-1.86;100.00;97847.66;5033253;28;20233;-79
2023/12/04 10:01:12;;;;;;;14.17;7.77;;;;;;;-1.96;100.00;97852.22;5033662;28;20233;-79
2023/12/04 10:03:40;;;;;;;14.27;8.37;;;;;;;-1.83;100.00;97832.06;5033880;28;20218;-78
2023/12/04 10:06:09;;;;;;;17.40;8.60;;;;;;;-1.80;100.00;97829.38;5033279;28;20211;-78
2023/12/04 10:08:35;;;;;;;13.27;7.80;;;;;;;-1.82;100.00;97824.28;5031915;28;20222;-77
2023/12/04 10:11:02;;;;;;;12.17;7.70;;;;;;;-1.77;100.00;97816.38;5031857;28;20243;-77
2023/12/04 10:13:28;;;;;;;15.67;8.00;;;;;;;-1.76;100.00;97808.56;5031349;28;20238;-77
2023/12/04 10:15:55;;;;;;;13.17;8.20;;;;;;;-1.81;100.00;97806.97;5030280;28;20662;-78
2023/12/04 10:18:25;;;;;;;14.50;8.77;;;;;;;-1.66;100.00;97791.03;5031154;28;20215;-77
2023/12/04 10:20:54;;;;;;;14.60;8.13;;;;;;;-1.61;100.00;97792.59;5029594;28;20516;-77
2023/12/04 10:23:22;;;;;;;12.80;6.77;;;;;;;-1.56;100.00;97795.06;5033907;28;20218;-80
2023/12/04 10:25:50;;;;;;;12.93;7.73;;;;;;;-1.56;100.00;97811.47;5041308;28;20564;-78
2023/12/04 10:28:18;;;;;;;13.30;7.33;;;;;;;-1.50;100.00;97806.13;5042982;28;20554;-77
2023/12/04 10:30:45;;;;;;;14.73;8.03;;;;;;;-1.45;100.00;97809.44;5042251;28;20215;-78
2023/12/04 10:33:14;;;;;;;13.37;7.47;;;;;;;-1.44;100.00;97799.91;5041680;28;20235;-78
2023/12/04 10:35:40;;;;;;;12.50;7.30;;;;;;;-1.33;100.00;97790.09;5037320;28;20217;-77
2023/12/04 10:38:08;;;;;;;14.13;7.43;;;;;;;-1.37;100.00;97796.25;5037269;28;20243;-78
2023/12/04 10:40:37;;;;;;;14.03;7.67;;;;;;;-1.32;100.00;97799.59;5037119;28;20222;-78
2023/12/04 10:43:16;;;;;;;14.63;8.55;;;;;;;-1.29;100.00;97789.16;5036311;28;20548;-77
2023/12/04 10:45:45;;;;;;;12.53;7.67;;;;;;;-1.20;100.00;97775.91;5036690;28;20206;-78
2023/12/04 10:48:12;;;;;;;13.83;7.77;;;;;;;-1.16;100.00;97777.53;5036582;28;20627;-77
2023/12/04 10:50:40;;;;;;;11.60;7.03;;;;;;;-1.09;100.00;97772.13;5037394;28;20226;-78
2023/12/04 10:53:07;;;;;;;13.07;8.20;;;;;;;-1.00;100.00;97771.00;5036927;28;20572;-77
2023/12/04 10:55:34;;;;;;;16.23;8.20;;;;;;;-0.90;100.00;97759.44;5016329;28;20227;-79
2023/12/04 10:58:05;;;;;;;11.77;7.30;;;;;;;-0.83;100.00;97755.78;5033175;28;20223;-78
2023/12/04 11:00:34;;;;;;;11.60;7.23;;;;;;;-0.82;100.00;97741.91;5027059;28;20218;-78
2023/12/04 11:03:07;;;;;;;10.10;7.37;;;;;;;-0.84;100.00;97735.91;5036090;28;20227;-78
2023/12/04 11:05:38;;;;;;;10.43;6.73;;;;;;;-0.88;100.00;97734.31;5035458;28;20216;-78
2023/12/04 11:08:07;;;;;;;12.53;7.10;;;;;;;-0.89;100.00;97737.78;5037728;28;20218;-78
2023/12/04 11:10:35;;;;;;;11.53;6.77;;;;;;;-0.63;100.00;97724.88;5039735;28;20220;-78
2023/12/04 11:13:06;;;;;;;12.30;6.97;;;;;;;-0.61;100.00;97699.72;5036770;28;20359;-78